createdAt,value
2023-04-06T00:02:14.732Z,100074.19
2023-04-06T00:04:47.661Z,100079.56
2023-04-06T00:07:19.509Z,100085.69
2023-04-06T00:09:52.892Z,100085.88
2023-04-06T00:12:31.388Z,100094.31
2023-04-06T00:15:11.997Z,100098.72
2023-04-06T00:17:44.901Z,100106.19
2023-04-06T00:20:20.532Z,100109.09
2023-04-06T00:22:55.400Z,100109.72
2023-04-06T00:25:24.888Z,100111.06
2023-04-06T00:27:56.527Z,100112.59
2023-04-06T00:30:40.535Z,100116.41
2023-04-06T00:33:13.889Z,100108.44
2023-04-06T00:35:45.431Z,100118.56
2023-04-06T00:38:17.819Z,100124.09
2023-04-06T00:40:51.223Z,100118.16
2023-04-06T00:43:22.308Z,100122.69
2023-04-06T00:45:51.545Z,100130.19
2023-04-06T00:48:22.037Z,100143.81
2023-04-06T00:50:53.133Z,100144.50
2023-04-06T00:53:24.974Z,100144.75
2023-04-06T00:55:55.936Z,100143.44
2023-04-06T00:58:32.370Z,100135.97
2023-04-06T01:01:11.683Z,100144.59
2023-04-06T01:03:45.443Z,100137.94
2023-04-06T01:06:23.242Z,100145.53
2023-04-06T01:09:07.685Z,100146.88
2023-04-06T01:11:44.029Z,100149.75
2023-04-06T01:14:23.056Z,100153.50
2023-04-06T01:17:09.239Z,100156.88
2023-04-06T01:19:48.533Z,100158.06
2023-04-06T01:22:28.895Z,100163.72
2023-04-06T01:25:07.704Z,100167.50
2023-04-06T01:28:12.018Z,100151.72
2023-04-06T01:31:13.098Z,100159.97
2023-04-06T01:33:55.696Z,100152.69
2023-04-06T01:36:36.479Z,100160.50
2023-04-06T01:39:25.704Z,100158.66
2023-04-06T01:42:07.832Z,100155.09
2023-04-06T01:44:45.107Z,100157.53
2023-04-06T01:47:17.415Z,100164.38
2023-04-06T01:49:55.437Z,100171.47
2023-04-06T01:52:27.281Z,100173.09
2023-04-06T01:55:04.502Z,100174.16
2023-04-06T01:57:53.525Z,100175.56
2023-04-06T02:00:36.874Z,100178.63
2023-04-06T02:03:13.302Z,100184.31
2023-04-06T02:05:45.616Z,100179.88
2023-04-06T02:08:36.749Z,100191.81
2023-04-06T02:11:16.115Z,100182.84
2023-04-06T02:13:55.667Z,100185.78
2023-04-06T02:16:35.762Z,100189.69
2023-04-06T02:19:08.548Z,100188.53
2023-04-06T02:21:44.193Z,100181.25
2023-04-06T02:24:13.684Z,100188.94
2023-04-06T02:26:48.231Z,100184.28
2023-04-06T02:29:19.853Z,100197.91
2023-04-06T02:31:55.302Z,100186.13
2023-04-06T02:34:27.461Z,100183.53
2023-04-06T02:37:05.152Z,100179.16
2023-04-06T02:39:37.216Z,100177.38
2023-04-06T02:42:11.830Z,100181.88
2023-04-06T02:44:47.239Z,100174.44
2023-04-06T02:47:17.659Z,100161.72
2023-04-06T02:49:52.911Z,100165.13
2023-04-06T02:52:23.977Z,100157.31
2023-04-06T02:54:54.951Z,100160.16
2023-04-06T02:57:31.377Z,100152.53
2023-04-06T03:00:09.084Z,100160.19
2023-04-06T03:02:47.676Z,100160.00
2023-04-06T03:05:20.965Z,100160.00
2023-04-06T03:07:53.092Z,100166.91
2023-04-06T03:10:37.516Z,100170.72
2023-04-06T03:13:11.127Z,100167.31
2023-04-06T03:15:53.600Z,100162.44
2023-04-06T03:18:31.457Z,100167.09
2023-04-06T03:21:08.512Z,100165.44
2023-04-06T03:24:04.074Z,100167.06
2023-04-06T03:26:37.255Z,100165.56
2023-04-06T03:29:18.650Z,100164.50
2023-04-06T03:32:11.877Z,100162.50
2023-04-06T03:35:12.037Z,100163.06
2023-04-06T03:37:51.945Z,100161.97
2023-04-06T03:45:19.525Z,100173.31
2023-04-06T03:47:55.369Z,100175.47
2023-04-06T03:50:35.933Z,100171.34
2023-04-06T03:53:07.855Z,100171.78
2023-04-06T03:55:47.440Z,100171.66
2023-04-06T03:58:23.951Z,100169.59
2023-04-06T04:01:07.249Z,100177.16
2023-04-06T04:03:40.897Z,100187.56
2023-04-06T04:06:16.512Z,100174.34
2023-04-06T04:08:49.662Z,100177.81
2023-04-06T04:11:25.473Z,100177.97
2023-04-06T04:14:05.512Z,100185.31
2023-04-06T04:16:40.632Z,100192.72
2023-04-06T04:19:12.507Z,100203.00
2023-04-06T04:21:51.115Z,100213.63
2023-04-06T04:24:35.467Z,100217.91
2023-04-06T04:27:09.239Z,100228.38
2023-04-06T04:29:45.234Z,100229.97
2023-04-06T04:32:16.750Z,100236.63
2023-04-06T04:34:59.372Z,100233.06
2023-04-06T04:37:43.421Z,100231.38
2023-04-06T04:40:16.265Z,100225.41
2023-04-06T04:43:08.240Z,100233.16
2023-04-06T04:45:39.948Z,100241.22
2023-04-06T04:48:36.081Z,100257.47
2023-04-06T04:51:13.192Z,100278.63
2023-04-06T04:54:00.980Z,100287.41
2023-04-06T04:56:37.003Z,100296.47
2023-04-06T04:59:33.183Z,100302.66
2023-04-06T05:02:15.471Z,100291.75
2023-04-06T05:04:57.559Z,100298.41
2023-04-06T05:07:36.626Z,100317.09
2023-04-06T05:10:12.031Z,100329.88
2023-04-06T05:12:55.311Z,100339.50
2023-04-06T05:15:25.217Z,100339.56
2023-04-06T05:18:04.994Z,100334.19
2023-04-06T05:20:47.477Z,100328.31
2023-04-06T05:23:23.968Z,100333.75
2023-04-06T05:26:07.142Z,100346.97
2023-04-06T05:28:42.402Z,100345.38
2023-04-06T05:31:25.214Z,100345.59
2023-04-06T05:34:28.578Z,100333.38
2023-04-06T05:37:24.263Z,100346.31
2023-04-06T05:40:07.828Z,100342.66
2023-04-06T05:42:44.957Z,100337.66
2023-04-06T05:45:21.469Z,100347.66
2023-04-06T05:48:16.110Z,100353.28
2023-04-06T05:50:53.035Z,100356.16
2023-04-06T05:53:47.486Z,100354.88
2023-04-06T05:56:19.907Z,100348.00
2023-04-06T05:58:52.022Z,100342.56
2023-04-06T06:01:44.026Z,100344.38
2023-04-06T06:04:16.119Z,100340.22
2023-04-06T06:06:53.838Z,100344.09
2023-04-06T06:09:44.375Z,100341.75
2023-04-06T06:12:36.656Z,100334.16
2023-04-06T06:15:13.413Z,100333.88
2023-04-06T06:17:56.710Z,100334.47
2023-04-06T06:20:43.169Z,100342.34
2023-04-06T06:23:15.955Z,100338.13
2023-04-06T06:25:48.912Z,100323.38
2023-04-06T06:28:27.768Z,100320.13
2023-04-06T06:31:09.922Z,100318.97
2023-04-06T06:33:44.477Z,100325.03
2023-04-06T06:36:17.213Z,100334.50
2023-04-06T06:38:56.381Z,100331.56
2023-04-06T06:41:35.912Z,100340.88
2023-04-06T06:44:15.515Z,100343.41
2023-04-06T06:46:47.202Z,100340.25
2023-04-06T06:49:19.179Z,100340.22
2023-04-06T06:51:53.822Z,100342.41
2023-04-06T06:54:32.192Z,100334.50
2023-04-06T06:57:08.803Z,100335.53
2023-04-06T06:59:44.491Z,100334.16
2023-04-06T07:02:20.448Z,100334.38
2023-04-06T07:05:28.325Z,100322.72
2023-04-06T07:08:32.659Z,100325.69
2023-04-06T07:11:14.047Z,100325.66
2023-04-06T07:14:02.326Z,100330.59
2023-04-06T07:16:37.127Z,100334.72
2023-04-06T07:19:13.368Z,100327.19
2023-04-06T07:21:53.174Z,100318.66
2023-04-06T07:24:33.143Z,100312.19
2023-04-06T07:27:11.552Z,100301.44
2023-04-06T07:29:45.742Z,100307.56
2023-04-06T07:32:34.779Z,100305.22
2023-04-06T07:35:07.429Z,100313.47
2023-04-06T07:37:44.739Z,100324.97
2023-04-06T07:40:20.596Z,100319.59
2023-04-06T07:42:53.390Z,100315.06
2023-04-06T07:45:24.630Z,100319.25
2023-04-06T07:47:57.295Z,100308.75
2023-04-06T07:50:34.914Z,100300.28
2023-04-06T07:53:05.089Z,100301.56
2023-04-06T07:55:40.051Z,100306.00
2023-04-06T07:58:11.385Z,100315.91
2023-04-06T08:00:45.636Z,100298.75
2023-04-06T08:03:23.941Z,100307.09
2023-04-06T08:05:56.830Z,100312.78
2023-04-06T08:08:33.546Z,100314.81
2023-04-06T08:11:05.475Z,100312.41
2023-04-06T08:13:39.660Z,100302.06
2023-04-06T08:16:11.574Z,100310.06
2023-04-06T08:18:44.686Z,100302.00
2023-04-06T08:21:21.237Z,100297.47
2023-04-06T08:23:51.819Z,100306.47
2023-04-06T08:26:23.073Z,100295.78
2023-04-06T08:28:53.748Z,100292.31
2023-04-06T08:31:25.760Z,100293.09
2023-04-06T08:33:57.890Z,100299.72
2023-04-06T08:36:32.817Z,100301.53
2023-04-06T08:39:05.381Z,100304.97
2023-04-06T08:41:37.104Z,100320.88
2023-04-06T08:44:11.465Z,100337.06
2023-04-06T08:46:41.801Z,100340.94
2023-04-06T08:49:16.678Z,100347.44
2023-04-06T08:51:45.038Z,100354.09
2023-04-06T08:54:15.194Z,100350.41
2023-04-06T08:56:45.707Z,100360.13
2023-04-06T08:59:16.736Z,100357.13
2023-04-06T09:01:48.714Z,100349.16
2023-04-06T09:04:17.451Z,100363.97
2023-04-06T09:06:47.879Z,100358.59
2023-04-06T09:09:17.946Z,100365.03
2023-04-06T09:11:53.126Z,100375.06
2023-04-06T09:14:40.633Z,100374.53
2023-04-06T09:17:10.592Z,100368.69
2023-04-06T09:19:51.303Z,100376.66
2023-04-06T09:22:21.745Z,100373.28
2023-04-06T09:24:53.190Z,100376.56
2023-04-06T09:27:41.357Z,100377.38
2023-04-06T09:30:17.478Z,100383.94
2023-04-06T09:32:53.407Z,100384.56
2023-04-06T09:35:25.636Z,100379.38
2023-04-06T09:37:57.505Z,100380.63
2023-04-06T09:40:32.153Z,100382.59
2023-04-06T09:43:05.054Z,100380.31
2023-04-06T09:45:35.625Z,100372.94
2023-04-06T09:48:05.697Z,100377.25
2023-04-06T09:50:36.831Z,100370.03
2023-04-06T09:53:07.851Z,100366.66
2023-04-06T09:55:49.478Z,100362.97
2023-04-06T09:58:31.269Z,100372.97
2023-04-06T10:01:13.052Z,100386.72
2023-04-06T10:04:00.472Z,100387.25
2023-04-06T10:06:36.812Z,100386.00
2023-04-06T10:09:12.031Z,100399.53
2023-04-06T10:11:44.331Z,100398.84
2023-04-06T10:14:15.186Z,100396.06
2023-04-06T10:16:49.421Z,100397.84
2023-04-06T10:19:27.955Z,100402.78
2023-04-06T10:22:10.079Z,100412.13
2023-04-06T10:24:41.857Z,100409.91
2023-04-06T10:27:13.291Z,100410.28
2023-04-06T10:29:54.085Z,100411.25
2023-04-06T10:32:40.140Z,100403.00
2023-04-06T10:35:17.575Z,100402.78
2023-04-06T10:37:56.911Z,100403.09
2023-04-06T10:40:41.081Z,100419.75
2023-04-06T10:43:16.053Z,100425.19
2023-04-06T10:45:48.376Z,100422.59
2023-04-06T10:48:21.207Z,100421.59
2023-04-06T10:50:55.526Z,100426.44
2023-04-06T10:53:31.393Z,100434.47
2023-04-06T10:56:03.224Z,100439.63
2023-04-06T10:58:35.476Z,100433.81
2023-04-06T11:01:05.932Z,100436.75
2023-04-06T11:03:47.678Z,100447.94
2023-04-06T11:06:33.955Z,100447.69
2023-04-06T11:09:05.295Z,100448.16
2023-04-06T11:11:47.457Z,100446.50
2023-04-06T11:14:17.982Z,100449.75
2023-04-06T11:16:55.012Z,100453.06
2023-04-06T11:19:25.111Z,100444.97
2023-04-06T11:21:59.415Z,100454.31
2023-04-06T11:24:38.272Z,100461.38
2023-04-06T11:27:11.366Z,100471.16
2023-04-06T11:29:44.427Z,100465.66
2023-04-06T11:32:23.070Z,100464.78
2023-04-06T11:34:53.493Z,100471.41
2023-04-06T11:37:31.646Z,100474.16
2023-04-06T11:40:05.857Z,100480.06
2023-04-06T11:42:37.348Z,100475.31
2023-04-06T11:45:19.315Z,100481.19
2023-04-06T11:48:03.071Z,100476.66
2023-04-06T11:50:36.612Z,100479.81
2023-04-06T11:53:12.118Z,100481.06
2023-04-06T11:55:47.665Z,100475.38
2023-04-06T11:58:20.452Z,100479.34
2023-04-06T12:00:51.305Z,100479.56
2023-04-06T12:03:23.324Z,100485.53
2023-04-06T12:05:53.923Z,100480.84
2023-04-06T12:08:31.086Z,100488.28
2023-04-06T12:11:04.626Z,100495.94
2023-04-06T12:13:33.852Z,100500.34
2023-04-06T12:16:04.794Z,100509.59
2023-04-06T12:18:36.337Z,100504.94
2023-04-06T12:21:11.326Z,100510.16
2023-04-06T12:23:43.444Z,100513.88
2023-04-06T12:26:13.509Z,100518.09
2023-04-06T12:28:48.452Z,100520.22
2023-04-06T12:31:23.493Z,100525.97
2023-04-06T12:33:55.768Z,100527.88
2023-04-06T12:36:27.889Z,100526.28
2023-04-06T12:39:05.331Z,100527.91
2023-04-06T12:41:37.418Z,100531.47
2023-04-06T12:44:09.844Z,100536.28
2023-04-06T12:46:45.198Z,100546.94
2023-04-06T12:49:19.173Z,100542.59
2023-04-06T12:51:49.253Z,100554.69
2023-04-06T12:54:20.457Z,100555.78
2023-04-06T12:56:51.525Z,100551.25
2023-04-06T12:59:23.790Z,100555.53
2023-04-06T13:01:55.170Z,100552.81
2023-04-06T13:04:27.403Z,100550.03
2023-04-06T13:07:03.578Z,100549.06
2023-04-06T13:09:43.641Z,100547.91
2023-04-06T13:12:13.247Z,100555.03
2023-04-06T13:14:47.374Z,100548.97
2023-04-06T13:17:19.459Z,100548.28
2023-04-06T13:19:49.788Z,100552.34
2023-04-06T13:22:24.032Z,100557.78
2023-04-06T13:24:54.663Z,100553.78
2023-04-06T13:27:24.956Z,100562.97
2023-04-06T13:29:55.914Z,100569.34
2023-04-06T13:32:25.628Z,100573.72
2023-04-06T13:35:00.985Z,100563.34
2023-04-06T13:37:33.007Z,100569.81
2023-04-06T13:40:07.990Z,100585.94
2023-04-06T13:42:37.662Z,100577.97
2023-04-06T13:45:11.014Z,100584.13
2023-04-06T13:47:41.470Z,100592.34
2023-04-06T13:50:12.066Z,100599.50
2023-04-06T13:52:43.594Z,100595.78
2023-04-06T13:55:13.383Z,100596.44
2023-04-06T13:57:45.322Z,100593.19
2023-04-06T14:00:16.905Z,100600.00
2023-04-06T14:02:53.136Z,100599.19
2023-04-06T14:05:56.445Z,100608.44
2023-04-06T14:08:27.803Z,100606.81
2023-04-06T14:11:03.683Z,100608.25
2023-04-06T14:13:35.789Z,100610.84
2023-04-06T14:16:13.335Z,100614.91
2023-04-06T14:18:45.444Z,100610.22
2023-04-06T14:21:15.359Z,100612.84
2023-04-06T14:23:47.047Z,100624.34
2023-04-06T14:26:19.439Z,100618.34
2023-04-06T14:28:50.312Z,100621.81
2023-04-06T14:31:21.072Z,100623.94
2023-04-06T14:33:51.343Z,100634.78
2023-04-06T14:36:21.797Z,100617.97
2023-04-06T14:38:53.863Z,100612.22
2023-04-06T14:41:29.893Z,100614.34
2023-04-06T14:44:05.646Z,100617.31
2023-04-06T14:46:36.506Z,100632.78
2023-04-06T14:49:11.272Z,100629.56
2023-04-06T14:51:41.246Z,100623.09
2023-04-06T14:54:14.604Z,100619.56
2023-04-06T14:56:51.594Z,100614.56
2023-04-06T14:59:21.373Z,100603.22
2023-04-06T15:01:53.343Z,100601.53
2023-04-06T15:04:24.509Z,100592.59
2023-04-06T15:06:57.529Z,100588.28
2023-04-06T15:09:32.486Z,100576.03
2023-04-06T15:12:09.898Z,100569.81
2023-04-06T15:14:43.317Z,100572.38
2023-04-06T15:17:15.824Z,100575.34
2023-04-06T15:19:45.389Z,100569.94
2023-04-06T15:22:16.423Z,100556.56
2023-04-06T15:24:56.331Z,100543.38
2023-04-06T15:27:31.673Z,100543.50
2023-04-06T15:30:12.778Z,100558.16
2023-04-06T15:33:17.392Z,100554.44
2023-04-06T15:40:57.610Z,100567.56
2023-04-06T15:45:17.932Z,100558.25
2023-04-06T15:49:39.104Z,100557.44
2023-04-06T15:52:57.070Z,100563.25
2023-04-06T15:56:11.835Z,100553.88
2023-04-06T16:06:37.670Z,100544.28
2023-04-06T16:09:16.372Z,100552.72
2023-04-06T16:11:51.636Z,100534.69
2023-04-06T16:14:20.868Z,100542.16
2023-04-06T16:16:51.240Z,100547.84
2023-04-06T16:19:20.437Z,100542.97
2023-04-06T16:21:49.597Z,100553.84
2023-04-06T16:24:19.190Z,100553.34
2023-04-06T16:26:49.181Z,100549.44
2023-04-06T16:29:18.950Z,100553.72
2023-04-06T16:31:51.562Z,100553.41
2023-04-06T16:34:21.302Z,100545.06
2023-04-06T16:36:51.050Z,100534.19
2023-04-06T16:39:20.411Z,100533.06
2023-04-06T16:41:49.467Z,100536.13
2023-04-06T16:44:20.447Z,100545.41
2023-04-06T16:46:49.444Z,100542.81
2023-04-06T16:49:21.005Z,100530.28
2023-04-06T16:51:51.501Z,100535.66
2023-04-06T16:54:20.973Z,100533.25
2023-04-06T16:56:51.690Z,100521.81
2023-04-06T16:59:21.011Z,100515.06
2023-04-06T17:01:49.439Z,100515.38
2023-04-06T17:04:20.927Z,100515.81
2023-04-06T17:06:52.966Z,100516.44
2023-04-06T17:09:23.622Z,100517.44
2023-04-06T17:11:57.376Z,100514.81
2023-04-06T17:14:31.178Z,100511.47
2023-04-06T17:17:02.868Z,100513.25
2023-04-06T17:19:32.265Z,100524.94
2023-04-06T17:22:05.661Z,100518.44
2023-04-06T17:24:39.025Z,100509.69
2023-04-06T17:27:09.203Z,100504.63
2023-04-06T17:29:38.798Z,100501.88
2023-04-06T17:32:08.311Z,100493.56
2023-04-06T17:34:37.656Z,100486.09
2023-04-06T17:37:08.079Z,100494.34
2023-04-06T17:39:37.442Z,100496.34
2023-04-06T17:42:07.542Z,100502.38
2023-04-06T17:44:37.473Z,100502.50
2023-04-06T17:47:07.363Z,100497.66
2023-04-06T17:49:36.561Z,100482.38
2023-04-06T17:52:05.496Z,100476.72
2023-04-06T17:54:38.820Z,100467.34
2023-04-06T17:57:09.173Z,100455.22
2023-04-06T17:59:40.206Z,100466.38
2023-04-06T18:02:12.913Z,100454.16
2023-04-06T18:04:45.213Z,100461.84
2023-04-06T18:07:14.845Z,100462.63
2023-04-06T18:09:44.248Z,100463.97
2023-04-06T18:12:13.236Z,100463.31
2023-04-06T18:14:44.924Z,100463.53
2023-04-06T18:17:15.057Z,100460.28
2023-04-06T18:19:45.980Z,100451.50
2023-04-06T18:22:16.141Z,100456.66
2023-04-06T18:24:46.974Z,100451.94
2023-04-06T18:27:16.203Z,100460.19
2023-04-06T18:29:48.622Z,100456.63
2023-04-06T18:32:17.579Z,100458.19
2023-04-06T18:34:47.576Z,100454.44
2023-04-06T18:37:16.977Z,100434.59
2023-04-06T18:39:45.956Z,100434.91
2023-04-06T18:42:15.326Z,100426.53
2023-04-06T18:44:45.523Z,100438.06
2023-04-06T18:47:17.470Z,100443.06
2023-04-06T18:49:51.370Z,100451.53
2023-04-06T18:52:20.891Z,100448.28
2023-04-06T18:54:52.312Z,100446.97
2023-04-06T18:57:21.803Z,100443.03
2023-04-06T18:59:52.005Z,100450.50
2023-04-06T19:02:21.345Z,100450.78
2023-04-06T19:04:52.817Z,100443.59
2023-04-06T19:07:23.406Z,100443.44
2023-04-06T19:09:52.573Z,100437.75
2023-04-06T19:12:21.741Z,100433.38
2023-04-06T19:14:53.510Z,100439.00
2023-04-06T19:17:24.349Z,100428.38
2023-04-06T19:19:53.442Z,100426.44
2023-04-06T19:22:23.479Z,100424.66
2023-04-06T19:24:54.258Z,100429.53
2023-04-06T19:27:24.605Z,100412.34
2023-04-06T19:29:53.956Z,100402.25
2023-04-06T19:32:23.851Z,100405.13
2023-04-06T19:34:53.264Z,100395.31
2023-04-06T19:37:23.648Z,100387.91
2023-04-06T19:39:53.642Z,100391.25
2023-04-06T19:42:27.687Z,100385.38
2023-04-06T19:45:02.207Z,100385.25
2023-04-06T19:47:37.443Z,100380.22
2023-04-06T19:50:12.797Z,100370.66
2023-04-06T19:52:44.981Z,100362.94
2023-04-06T19:55:15.409Z,100360.78
2023-04-06T19:57:47.049Z,100365.28
2023-04-06T20:00:17.589Z,100365.00
2023-04-06T20:02:49.604Z,100364.28
2023-04-06T20:05:24.270Z,100364.09
2023-04-06T20:07:57.341Z,100364.44
2023-04-06T20:10:33.611Z,100361.00
2023-04-06T20:13:08.944Z,100357.44
2023-04-06T20:15:40.962Z,100358.91
2023-04-06T20:18:13.704Z,100355.59
2023-04-06T20:20:47.547Z,100349.16
2023-04-06T20:23:19.944Z,100349.16
2023-04-06T20:25:51.236Z,100341.81
2023-04-06T20:28:24.767Z,100347.06
2023-04-06T20:30:55.738Z,100341.06
2023-04-06T20:33:27.495Z,100331.59
2023-04-06T20:36:01.483Z,100334.13
2023-04-06T20:38:41.497Z,100334.97
2023-04-06T20:41:15.681Z,100340.09
2023-04-06T20:43:48.208Z,100338.91
2023-04-06T20:46:20.114Z,100335.31
2023-04-06T20:48:54.276Z,100327.19
2023-04-06T20:51:30.803Z,100337.97
2023-04-06T20:54:03.685Z,100341.22
2023-04-06T20:56:33.793Z,100334.31
2023-04-06T20:59:08.192Z,100335.19
2023-04-06T21:01:38.209Z,100327.69
2023-04-06T21:04:13.124Z,100345.97
2023-04-06T21:06:53.274Z,100342.41
2023-04-06T21:09:46.950Z,100322.41
2023-04-06T21:12:54.046Z,100308.88
2023-04-06T21:16:54.011Z,100311.44
2023-04-06T21:19:30.166Z,100301.16
2023-04-06T21:22:05.473Z,100315.75
2023-04-06T21:24:36.754Z,100306.44
2023-04-06T21:27:09.583Z,100304.69
2023-04-06T21:29:42.214Z,100308.44
2023-04-06T21:32:12.275Z,100302.81
2023-04-06T21:34:49.491Z,100307.44
2023-04-06T21:37:19.934Z,100309.19
2023-04-06T21:39:50.014Z,100318.19
2023-04-06T21:42:20.251Z,100325.06
2023-04-06T21:44:54.302Z,100323.88
2023-04-06T21:47:25.988Z,100316.81
2023-04-06T21:50:01.220Z,100330.94
2023-04-06T21:52:34.053Z,100338.59
2023-04-06T21:55:07.950Z,100348.69
2023-04-06T21:57:37.856Z,100352.22
2023-04-06T22:00:20.617Z,100364.25
2023-04-06T22:02:57.644Z,100378.69
2023-04-06T22:06:15.904Z,100394.16
2023-04-06T22:13:43.931Z,100453.34
2023-04-06T22:16:13.260Z,100510.41
2023-04-06T22:18:45.821Z,100509.91
2023-04-06T22:21:18.816Z,100531.13
2023-04-06T22:23:51.382Z,100513.09
2023-04-06T22:26:53.548Z,100502.53
2023-04-06T22:29:49.912Z,100526.66
2023-04-06T22:32:35.335Z,100542.66
2023-04-06T22:35:18.169Z,100565.03
2023-04-06T22:37:49.845Z,100574.56
2023-04-06T22:40:21.584Z,100564.09
2023-04-06T22:42:53.585Z,100565.91
2023-04-06T22:45:28.236Z,100572.34
2023-04-06T22:48:00.963Z,100577.63
2023-04-06T22:50:33.440Z,100567.47
2023-04-06T22:53:06.100Z,100565.47
2023-04-06T22:55:37.872Z,100578.78
2023-04-06T22:58:12.729Z,100591.97
2023-04-06T23:00:44.942Z,100586.22
2023-04-06T23:03:16.337Z,100584.13
2023-04-06T23:05:47.380Z,100598.09
2023-04-06T23:08:17.872Z,100598.34
2023-04-06T23:10:48.128Z,100612.81
2023-04-06T23:13:18.719Z,100621.63
2023-04-06T23:15:48.075Z,100630.41
2023-04-06T23:18:18.421Z,100641.66
2023-04-06T23:20:52.504Z,100635.38
2023-04-06T23:23:26.225Z,100646.84
2023-04-06T23:25:57.611Z,100626.31
2023-04-06T23:28:31.840Z,100629.34
2023-04-06T23:31:05.484Z,100620.31
2023-04-06T23:33:37.441Z,100618.63
2023-04-06T23:36:07.671Z,100627.22
2023-04-06T23:38:36.957Z,100618.94
2023-04-06T23:41:08.271Z,100633.09
2023-04-06T23:43:37.740Z,100628.69
2023-04-06T23:46:08.676Z,100624.44
2023-04-06T23:48:45.297Z,100634.75
2023-04-06T23:51:17.082Z,100646.78
2023-04-06T23:53:48.410Z,100647.41
2023-04-06T23:56:17.813Z,100665.84
2023-04-06T23:58:48.041Z,100675.97
